createdAt,value
2018-11-23T00:01:00.397Z,15.98
2018-11-23T00:03:28.935Z,15.90
2018-11-23T00:05:57.433Z,15.88
2018-11-23T00:08:25.945Z,15.75
2018-11-23T00:10:54.594Z,16.62
2018-11-23T00:13:23.191Z,15.55
2018-11-23T00:15:52.216Z,16.30
2018-11-23T00:18:21.438Z,16.55
2018-11-23T00:20:49.930Z,15.68
2018-11-23T00:23:18.463Z,16.42
2018-11-23T00:25:47.089Z,16.73
2018-11-23T00:28:16.126Z,16.62
2018-11-23T00:30:44.917Z,15.83
2018-11-23T00:33:14.058Z,16.80
2018-11-23T00:35:45.575Z,15.40
2018-11-23T00:38:14.109Z,16.93
2018-11-23T00:40:43.260Z,16.93
2018-11-23T00:43:13.702Z,15.48
2018-11-23T00:45:43.112Z,15.63
2018-11-23T00:48:10.768Z,16.45
2018-11-23T00:50:39.740Z,16.30
2018-11-23T00:53:08.476Z,16.07
2018-11-23T00:55:37.039Z,16.20
2018-11-23T00:58:05.521Z,16.20
2018-11-23T01:00:35.710Z,16.35
2018-11-23T01:03:05.376Z,15.72
2018-11-23T01:05:35.092Z,15.25
2018-11-23T01:08:04.585Z,15.68
2018-11-23T01:10:34.067Z,15.93
2018-11-23T01:13:02.669Z,16.65
2018-11-23T01:15:31.674Z,16.42
2018-11-23T01:18:00.163Z,16.60
2018-11-23T01:20:28.994Z,16.12
2018-11-23T01:22:58.749Z,16.05
2018-11-23T01:25:29.221Z,16.12
2018-11-23T01:27:58.187Z,16.65
2018-11-23T01:30:28.697Z,15.95
2018-11-23T01:32:57.258Z,15.95
2018-11-23T01:35:25.639Z,16.32
2018-11-23T01:37:54.119Z,15.65
2018-11-23T01:40:25.032Z,16.52
2018-11-23T01:42:55.390Z,17.10
2018-11-23T01:45:23.848Z,15.53
2018-11-23T01:47:52.654Z,16.23
2018-11-23T01:50:23.609Z,16.80
2018-11-23T01:52:54.012Z,16.48
2018-11-23T01:55:23.351Z,15.43
2018-11-23T01:57:52.006Z,15.30
2018-11-23T02:00:23.893Z,16.05
2018-11-23T02:02:53.258Z,16.40
2018-11-23T02:05:23.093Z,16.02
2018-11-23T02:07:52.128Z,16.95
2018-11-23T02:10:20.849Z,16.35
2018-11-23T02:12:49.306Z,15.83
2018-11-23T02:15:21.367Z,15.93
2018-11-23T02:17:50.818Z,16.15
2018-11-23T02:20:20.229Z,16.32
2018-11-23T02:22:48.653Z,15.75
2018-11-23T02:25:17.389Z,16.62
2018-11-23T02:27:46.462Z,15.75
2018-11-23T02:30:16.923Z,16.60
2018-11-23T02:32:46.618Z,16.67
2018-11-23T02:35:15.610Z,17.05
2018-11-23T02:37:44.061Z,16.50
2018-11-23T02:40:13.774Z,16.75
2018-11-23T02:42:42.486Z,16.32
2018-11-23T02:45:12.878Z,15.88
2018-11-23T02:47:42.232Z,16.48
2018-11-23T02:50:10.932Z,16.10
2018-11-23T02:52:40.293Z,15.68
2018-11-23T02:55:09.845Z,15.70
2018-11-23T02:57:39.817Z,16.75
2018-11-23T03:00:09.192Z,16.55
2018-11-23T03:02:38.063Z,16.30
2018-11-23T03:05:07.262Z,16.42
2018-11-23T03:07:37.845Z,17.30
2018-11-23T03:10:06.976Z,16.60
2018-11-23T03:12:35.557Z,16.82
2018-11-23T03:15:04.736Z,16.30
2018-11-23T03:17:33.408Z,15.90
2018-11-23T03:20:01.934Z,16.37
2018-11-23T03:22:30.957Z,16.57
2018-11-23T03:25:00.228Z,16.52
2018-11-23T03:27:28.819Z,16.97
2018-11-23T03:29:57.279Z,16.37
2018-11-23T03:32:26.371Z,16.65
2018-11-23T03:34:55.661Z,16.85
2018-11-23T03:37:24.233Z,16.50
2018-11-23T03:39:52.833Z,15.95
2018-11-23T03:42:21.480Z,16.67
2018-11-23T03:44:50.024Z,16.67
2018-11-23T03:47:18.471Z,17.07
2018-11-23T03:49:47.560Z,16.25
2018-11-23T03:52:16.381Z,16.45
2018-11-23T03:54:44.875Z,16.62
2018-11-23T03:57:13.333Z,16.35
2018-11-23T03:59:41.921Z,16.10
2018-11-23T04:02:10.394Z,16.82
2018-11-23T04:04:38.867Z,15.95
2018-11-23T04:07:08.573Z,16.60
2018-11-23T04:09:37.211Z,16.30
2018-11-23T04:12:06.825Z,16.62
2018-11-23T04:14:35.516Z,17.27
2018-11-23T04:17:04.007Z,16.85
2018-11-23T04:19:32.622Z,17.25
2018-11-23T04:22:01.107Z,16.05
2018-11-23T04:24:30.067Z,16.32
2018-11-23T04:26:58.719Z,16.67
2018-11-23T04:29:29.299Z,16.93
2018-11-23T04:31:57.779Z,16.57
2018-11-23T04:34:26.926Z,16.48
2018-11-23T04:36:55.897Z,17.10
2018-11-23T04:39:24.386Z,17.40
2018-11-23T04:41:52.821Z,16.77
2018-11-23T04:44:21.741Z,16.02
2018-11-23T04:46:50.227Z,17.32
2018-11-23T04:49:18.858Z,17.37
2018-11-23T04:51:47.639Z,16.35
2018-11-23T04:54:16.141Z,16.48
2018-11-23T04:56:44.740Z,16.70
2018-11-23T04:59:14.064Z,16.57
2018-11-23T05:01:43.026Z,16.30
2018-11-23T05:04:11.648Z,16.17
2018-11-23T05:06:40.473Z,16.62
2018-11-23T05:09:10.530Z,16.90
2018-11-23T05:11:39.351Z,16.35
2018-11-23T05:14:07.828Z,16.67
2018-11-23T05:16:36.525Z,16.85
2018-11-23T05:19:05.657Z,16.10
2018-11-23T05:21:34.250Z,16.82
2018-11-23T05:24:02.952Z,16.85
2018-11-23T05:26:31.445Z,16.67
2018-11-23T05:28:59.971Z,16.62
2018-11-23T05:31:28.584Z,17.37
2018-11-23T05:33:57.637Z,17.17
2018-11-23T05:36:27.189Z,16.90
2018-11-23T05:38:57.657Z,17.05
2018-11-23T05:41:26.511Z,16.82
2018-11-23T05:43:56.228Z,17.65
2018-11-23T05:46:24.696Z,17.15
2018-11-23T05:48:53.689Z,16.07
2018-11-23T05:51:22.124Z,17.05
2018-11-23T05:53:51.074Z,17.65
2018-11-23T05:56:19.746Z,17.20
2018-11-23T05:58:48.446Z,17.00
2018-11-23T06:01:16.926Z,17.70
2018-11-23T06:03:46.436Z,17.27
2018-11-23T06:06:15.090Z,17.87
2018-11-23T06:08:44.092Z,17.37
2018-11-23T06:11:14.187Z,17.67
2018-11-23T06:13:42.730Z,17.48
2018-11-23T06:16:11.881Z,17.70
2018-11-23T06:18:40.370Z,16.95
2018-11-23T06:21:10.329Z,18.23
2018-11-23T06:23:40.163Z,17.57
2018-11-23T06:26:13.015Z,17.40
2018-11-23T06:28:43.049Z,17.35
2018-11-23T06:31:12.053Z,17.23
2018-11-23T06:33:46.162Z,17.45
2018-11-23T06:36:14.779Z,17.73
2018-11-23T06:38:43.351Z,18.15
2018-11-23T06:41:12.229Z,17.27
2018-11-23T06:43:41.640Z,17.82
2018-11-23T06:46:11.358Z,17.73
2018-11-23T06:48:39.976Z,17.90
2018-11-23T06:51:09.917Z,17.90
2018-11-23T06:53:38.542Z,17.85
2018-11-23T06:56:08.372Z,18.07
2018-11-23T06:58:38.123Z,17.85
2018-11-23T07:01:06.604Z,18.00
2018-11-23T07:03:36.475Z,17.50
2018-11-23T07:06:06.200Z,17.55
2018-11-23T07:08:35.581Z,17.48
2018-11-23T07:11:05.516Z,17.82
2018-11-23T07:13:34.368Z,18.52
2018-11-23T07:16:04.152Z,18.17
2018-11-23T07:18:34.234Z,18.20
2018-11-23T07:21:03.891Z,17.62
2018-11-23T07:23:33.750Z,18.52
2018-11-23T07:26:03.930Z,17.85
2018-11-23T07:28:32.370Z,18.32
2018-11-23T07:31:02.412Z,18.75
2018-11-23T07:33:30.367Z,18.23
2018-11-23T07:35:58.979Z,18.23
2018-11-23T07:38:27.531Z,17.45
2018-11-23T07:41:01.468Z,18.67
2018-11-23T07:43:30.021Z,18.32
2018-11-23T07:45:58.585Z,18.12
2018-11-23T07:48:27.206Z,17.60
2018-11-23T07:50:55.836Z,18.40
2018-11-23T07:53:24.148Z,18.50
2018-11-23T07:55:52.715Z,18.67
2018-11-23T07:58:21.337Z,18.60
2018-11-23T08:00:49.822Z,17.90
2018-11-23T08:03:18.433Z,18.52
2018-11-23T08:05:46.937Z,17.92
2018-11-23T08:08:15.571Z,18.75
2018-11-23T08:10:43.286Z,19.23
2018-11-23T08:13:12.290Z,18.07
2018-11-23T08:15:41.301Z,18.12
2018-11-23T08:18:10.297Z,18.52
2018-11-23T08:20:39.061Z,18.82
2018-11-23T08:23:08.121Z,19.20
2018-11-23T08:25:36.814Z,18.15
2018-11-23T08:28:05.703Z,18.75
2018-11-23T08:30:34.603Z,18.73
2018-11-23T08:33:03.589Z,18.30
2018-11-23T08:35:33.025Z,19.30
2018-11-23T08:38:02.239Z,18.52
2018-11-23T08:40:31.776Z,18.85
2018-11-23T08:43:01.024Z,19.37
2018-11-23T08:45:30.522Z,18.48
2018-11-23T08:47:59.060Z,18.92
2018-11-23T08:50:29.391Z,19.32
2018-11-23T08:52:58.277Z,18.15
2018-11-23T08:55:27.796Z,18.32
2018-11-23T08:57:56.571Z,19.17
2018-11-23T09:00:26.508Z,18.92
2018-11-23T09:02:56.968Z,18.80
2018-11-23T09:05:25.818Z,19.25
2018-11-23T09:07:55.746Z,18.23
2018-11-23T09:10:25.292Z,19.02
2018-11-23T09:12:56.317Z,17.85
2018-11-23T09:15:25.646Z,19.05
2018-11-23T09:17:55.673Z,18.52
2018-11-23T09:20:24.310Z,18.35
2018-11-23T09:22:53.110Z,18.02
2018-11-23T09:25:23.178Z,18.17
2018-11-23T09:27:51.726Z,18.45
2018-11-23T09:30:22.610Z,19.17
2018-11-23T09:32:52.891Z,19.00
2018-11-23T09:35:21.813Z,19.48
2018-11-23T09:37:51.598Z,19.57
2018-11-23T09:40:23.750Z,19.35
2018-11-23T09:42:54.288Z,18.95
2018-11-23T09:45:24.682Z,19.25
2018-11-23T09:47:56.429Z,19.42
2018-11-23T09:50:26.090Z,19.07
2018-11-23T09:52:56.210Z,19.73
2018-11-23T09:55:25.840Z,19.57
2018-11-23T09:57:54.410Z,18.23
2018-11-23T10:00:29.424Z,18.70
2018-11-23T10:02:59.131Z,19.23
2018-11-23T10:05:28.754Z,19.48
2018-11-23T10:07:59.995Z,18.98
2018-11-23T10:10:30.771Z,18.98
2018-11-23T10:13:00.031Z,19.50
2018-11-23T10:15:29.928Z,20.35
2018-11-23T10:17:58.627Z,19.23
2018-11-23T10:20:29.427Z,19.70
2018-11-23T10:22:58.337Z,19.27
2018-11-23T10:25:30.557Z,19.42
2018-11-23T10:28:00.627Z,19.87
2018-11-23T10:30:30.461Z,18.87
2018-11-23T10:33:00.309Z,18.85
2018-11-23T10:35:30.161Z,19.23
2018-11-23T10:38:01.674Z,19.42
2018-11-23T10:40:33.793Z,19.40
2018-11-23T10:43:03.712Z,19.20
2018-11-23T10:45:34.413Z,19.25
2018-11-23T10:48:04.349Z,18.52
2018-11-23T10:50:36.723Z,18.65
2018-11-23T10:53:07.495Z,19.45
2018-11-23T10:55:38.227Z,19.57
2018-11-23T10:58:07.615Z,19.52
2018-11-23T11:00:41.717Z,19.65
2018-11-23T11:05:21.689Z,18.82
2018-11-23T11:07:51.169Z,18.87
2018-11-23T11:10:19.941Z,18.85
2018-11-23T11:12:48.954Z,18.45
2018-11-23T11:15:18.279Z,19.20
2018-11-23T11:17:47.114Z,19.98
2018-11-23T11:20:17.320Z,19.35
2018-11-23T11:22:47.446Z,19.30
2018-11-23T11:25:16.351Z,18.70
2018-11-23T11:27:46.383Z,19.67
2018-11-23T11:30:17.166Z,20.23
2018-11-23T11:32:46.433Z,19.32
2018-11-23T11:35:15.751Z,20.20
2018-11-23T11:37:45.718Z,18.82
2018-11-23T11:40:15.967Z,19.85
2018-11-23T11:42:44.799Z,20.57
2018-11-23T11:45:14.804Z,21.93
2018-11-23T11:47:45.390Z,21.50
2018-11-23T11:50:14.266Z,20.62
2018-11-23T11:52:44.445Z,20.65
2018-11-23T11:55:16.355Z,22.00
2018-11-23T11:57:46.548Z,21.97
2018-11-23T12:00:25.039Z,22.65
2018-11-23T12:02:54.881Z,22.75
2018-11-23T12:05:23.989Z,22.13
2018-11-23T12:07:52.776Z,23.32
2018-11-23T12:10:23.113Z,22.35
2018-11-23T12:12:51.980Z,23.40
2018-11-23T12:15:21.892Z,22.82
2018-11-23T12:17:51.152Z,22.27
2018-11-23T12:20:22.336Z,22.82
2018-11-23T12:22:51.598Z,22.17
2018-11-23T12:25:20.464Z,22.87
2018-11-23T12:27:49.438Z,25.15
2018-11-23T12:30:19.148Z,23.00
2018-11-23T12:32:49.149Z,22.65
2018-11-23T12:35:20.700Z,21.73
2018-11-23T12:37:49.587Z,21.93
2018-11-23T12:40:19.425Z,21.52
2018-11-23T12:42:49.498Z,21.57
2018-11-23T12:45:20.071Z,22.35
2018-11-23T12:47:49.995Z,22.30
2018-11-23T12:50:20.403Z,21.60
2018-11-23T12:52:49.284Z,21.80
2018-11-23T12:55:19.593Z,21.55
2018-11-23T12:57:49.161Z,22.17
2018-11-23T13:00:24.725Z,22.10
2018-11-23T13:02:56.606Z,20.97
2018-11-23T13:05:26.915Z,21.52
2018-11-23T13:07:57.120Z,21.87
2018-11-23T13:10:26.512Z,21.45
2018-11-23T13:12:57.059Z,21.15
2018-11-23T13:15:25.878Z,21.45
2018-11-23T13:17:56.781Z,20.90
2018-11-23T13:20:26.636Z,20.35
2018-11-23T13:22:55.347Z,21.05
2018-11-23T13:25:26.345Z,21.25
2018-11-23T13:27:55.489Z,20.23
2018-11-23T13:30:31.336Z,20.77
2018-11-23T13:33:00.063Z,20.00
2018-11-23T13:35:28.539Z,20.27
2018-11-23T13:37:57.118Z,21.35
2018-11-23T13:40:27.634Z,20.25
2018-11-23T13:42:57.119Z,20.12
2018-11-23T13:45:26.996Z,19.75
2018-11-23T13:47:56.993Z,19.50
2018-11-23T13:50:26.264Z,19.85
2018-11-23T13:52:58.435Z,19.92
2018-11-23T13:55:27.048Z,18.77
2018-11-23T13:57:56.941Z,20.08
2018-11-23T14:00:28.040Z,18.95
2018-11-23T14:02:57.948Z,18.77
2018-11-23T14:05:28.260Z,18.87
2018-11-23T14:07:59.205Z,18.87
2018-11-23T14:10:28.792Z,19.55
2018-11-23T14:12:57.419Z,18.90
2018-11-23T14:15:27.350Z,19.32
2018-11-23T14:17:58.522Z,18.40
2018-11-23T14:20:28.634Z,19.30
2018-11-23T14:22:58.160Z,18.73
2018-11-23T14:25:28.587Z,17.12
2018-11-23T14:27:57.688Z,18.32
2018-11-23T14:30:27.961Z,19.70
2018-11-23T14:32:56.681Z,17.75
2018-11-23T14:35:27.209Z,17.40
2018-11-23T14:37:58.202Z,17.30
2018-11-23T14:40:26.972Z,17.98
2018-11-23T14:42:56.395Z,16.95
2018-11-23T14:45:29.904Z,17.52
2018-11-23T14:47:59.691Z,17.67
2018-11-23T14:50:29.736Z,17.35
2018-11-23T14:53:00.956Z,17.37
2018-11-23T14:55:29.736Z,16.27
2018-11-23T14:57:58.644Z,16.62
2018-11-23T15:00:30.084Z,16.40
2018-11-23T15:02:59.937Z,16.62
2018-11-23T15:05:28.677Z,16.40
2018-11-23T15:07:57.461Z,17.00
2018-11-23T15:10:27.362Z,17.12
2018-11-23T15:12:57.182Z,17.80
2018-11-23T15:15:30.822Z,16.37
2018-11-23T15:18:00.414Z,16.70
2018-11-23T15:20:31.118Z,15.60
2018-11-23T15:23:00.921Z,16.07
2018-11-23T15:25:31.147Z,15.50
2018-11-23T15:27:59.736Z,15.68
2018-11-23T15:30:32.077Z,15.68
2018-11-23T15:33:01.396Z,15.60
2018-11-23T15:35:31.084Z,16.02
2018-11-23T15:39:24.736Z,15.58
2018-11-23T15:41:54.675Z,16.05
2018-11-23T15:44:24.338Z,16.70
2018-11-23T15:46:53.037Z,15.38
2018-11-23T15:49:22.356Z,15.55
2018-11-23T15:51:51.005Z,15.30
2018-11-23T15:54:21.144Z,14.80
2018-11-23T15:56:49.941Z,14.95
2018-11-23T15:59:19.284Z,14.93
2018-11-23T16:01:48.480Z,15.38
2018-11-23T16:04:18.586Z,15.00
2018-11-23T16:06:48.397Z,15.30
2018-11-23T16:09:18.620Z,14.50
2018-11-23T16:11:47.621Z,14.60
2018-11-23T16:14:17.949Z,14.05
2018-11-23T16:16:46.426Z,14.75
2018-11-23T16:19:15.620Z,13.48
2018-11-23T16:21:45.179Z,14.58
2018-11-23T16:24:14.949Z,14.65
2018-11-23T16:26:45.345Z,13.60
2018-11-23T16:29:15.147Z,14.03
2018-11-23T16:31:43.655Z,14.43
2018-11-23T16:34:13.334Z,13.48
2018-11-23T16:36:43.244Z,13.78
2018-11-23T16:39:12.979Z,14.20
2018-11-23T16:41:43.085Z,13.43
2018-11-23T16:44:12.029Z,13.60
2018-11-23T16:46:41.544Z,13.55
2018-11-23T16:49:10.782Z,13.35
2018-11-23T16:51:39.887Z,13.55
2018-11-23T16:54:09.904Z,13.45
2018-11-23T16:56:44.596Z,13.70
2018-11-23T16:59:14.051Z,13.30
2018-11-23T17:01:44.380Z,13.13
2018-11-23T17:04:13.881Z,13.65
2018-11-23T17:06:43.745Z,12.43
2018-11-23T17:09:13.504Z,12.90
2018-11-23T17:11:43.616Z,13.15
2018-11-23T17:14:12.973Z,13.03
2018-11-23T17:16:43.251Z,13.10
2018-11-23T17:19:12.041Z,12.85
2018-11-23T17:21:42.069Z,12.03
2018-11-23T17:24:12.436Z,12.73
2018-11-23T17:26:41.722Z,12.68
2018-11-23T17:29:11.902Z,12.63
2018-11-23T17:31:40.919Z,13.32
2018-11-23T17:34:10.564Z,12.65
2018-11-23T17:36:39.172Z,12.85
2018-11-23T17:39:09.493Z,12.65
2018-11-23T17:41:38.886Z,12.78
2018-11-23T17:44:07.588Z,12.47
2018-11-23T17:46:36.583Z,12.37
2018-11-23T17:49:06.287Z,12.07
2018-11-23T17:51:36.836Z,12.20
2018-11-23T17:54:06.875Z,12.25
2018-11-23T17:56:37.979Z,11.73
2018-11-23T17:59:07.341Z,11.90
2018-11-23T18:01:36.547Z,12.20
2018-11-23T18:04:07.094Z,11.93
2018-11-23T18:06:35.999Z,11.60
2018-11-23T18:09:06.248Z,11.55
2018-11-23T18:11:35.128Z,11.25
2018-11-23T18:14:04.289Z,11.80
2018-11-23T18:16:33.475Z,11.45
2018-11-23T18:19:02.316Z,11.15
2018-11-23T18:21:32.031Z,11.45
2018-11-23T18:24:01.626Z,12.03
2018-11-23T18:26:31.791Z,11.15
2018-11-23T18:29:00.940Z,11.20
2018-11-23T18:31:31.002Z,11.22
2018-11-23T18:34:00.371Z,11.03
2018-11-23T18:36:28.958Z,11.63
2018-11-23T18:38:59.102Z,11.38
2018-11-23T18:41:28.052Z,11.88
2018-11-23T18:43:57.682Z,11.68
2018-11-23T18:46:26.900Z,11.40
2018-11-23T18:48:55.740Z,11.38
2018-11-23T18:51:26.168Z,12.03
2018-11-23T18:53:55.819Z,11.50
2018-11-23T18:56:24.546Z,11.35
2018-11-23T18:58:53.661Z,11.10
2018-11-23T19:01:23.012Z,10.90
2018-11-23T19:03:52.970Z,11.03
2018-11-23T19:06:22.951Z,11.75
2018-11-23T19:08:51.985Z,11.33
2018-11-23T19:11:21.731Z,10.43
2018-11-23T19:13:50.746Z,10.78
2018-11-23T19:16:19.318Z,10.82
2018-11-23T19:18:48.004Z,10.82
2018-11-23T19:21:17.993Z,10.80
2018-11-23T19:23:47.140Z,10.72
2018-11-23T19:26:16.872Z,10.63
2018-11-23T19:28:46.041Z,10.70
2018-11-23T19:31:15.214Z,10.50
2018-11-23T19:33:44.531Z,10.23
2018-11-23T19:36:13.480Z,11.08
2018-11-23T19:38:44.143Z,10.00
2018-11-23T19:41:14.982Z,10.88
2018-11-23T19:43:45.128Z,11.08
2018-11-23T19:46:14.692Z,10.82
2018-11-23T19:48:44.453Z,10.60
2018-11-23T19:51:13.309Z,10.30
2018-11-23T19:53:42.426Z,10.43
2018-11-23T19:56:11.424Z,10.35
2018-11-23T19:58:41.251Z,10.53
2018-11-23T20:01:09.977Z,10.50
2018-11-23T20:03:38.756Z,10.60
2018-11-23T20:06:07.338Z,10.25
2018-11-23T20:08:36.817Z,10.05
2018-11-23T20:11:06.004Z,10.15
2018-11-23T20:13:35.016Z,10.30
2018-11-23T20:16:04.128Z,9.93
2018-11-23T20:18:33.322Z,10.20
2018-11-23T20:21:02.913Z,10.23
2018-11-23T20:23:32.438Z,10.05
2018-11-23T20:26:01.615Z,10.03
2018-11-23T20:28:30.875Z,9.83
2018-11-23T20:30:59.929Z,9.73
2018-11-23T20:33:29.433Z,9.65
2018-11-23T20:35:58.826Z,9.95
2018-11-23T20:38:28.336Z,9.78
2018-11-23T20:40:57.288Z,9.73
2018-11-23T20:43:26.547Z,9.98
2018-11-23T20:45:55.777Z,9.68
2018-11-23T20:48:24.528Z,9.60
2018-11-23T20:50:53.554Z,9.60
2018-11-23T20:53:22.368Z,9.83
2018-11-23T20:55:51.341Z,10.13
2018-11-23T20:58:20.587Z,9.68
2018-11-23T21:00:49.677Z,8.95
2018-11-23T21:03:19.005Z,9.70
2018-11-23T21:05:48.519Z,9.58
2018-11-23T21:08:17.550Z,10.15
2018-11-23T21:10:46.400Z,9.40
2018-11-23T21:13:15.842Z,9.13
2018-11-23T21:15:45.368Z,9.55
2018-11-23T21:18:14.432Z,9.70
2018-11-23T21:20:43.119Z,9.78
2018-11-23T21:23:12.976Z,9.20
2018-11-23T21:25:41.988Z,8.70
2018-11-23T21:28:11.066Z,9.43
2018-11-23T21:30:39.796Z,9.40
2018-11-23T21:33:10.100Z,9.25
2018-11-23T21:35:39.300Z,9.38
2018-11-23T21:38:09.312Z,9.00
2018-11-23T21:40:44.332Z,9.05
2018-11-23T21:43:07.906Z,8.88
2018-11-23T21:45:37.573Z,8.38
2018-11-23T21:48:06.368Z,8.85
2018-11-23T21:50:35.651Z,8.50
2018-11-23T21:53:05.755Z,8.88
2018-11-23T21:55:34.912Z,8.98
2018-11-23T21:58:03.684Z,8.65
2018-11-23T22:00:33.737Z,8.75
2018-11-23T22:03:03.750Z,8.95
2018-11-23T22:05:33.208Z,8.60
2018-11-23T22:08:02.042Z,9.40
2018-11-23T22:10:30.744Z,8.73
2018-11-23T22:12:59.848Z,8.65
2018-11-23T22:15:29.088Z,8.43
2018-11-23T22:17:59.235Z,8.73
2018-11-23T22:20:28.753Z,8.60
2018-11-23T22:22:58.250Z,8.28
2018-11-23T22:25:27.811Z,8.48
2018-11-23T22:27:56.336Z,8.30
2018-11-23T22:30:26.970Z,7.97
2018-11-23T22:32:56.183Z,8.68
2018-11-23T22:35:26.498Z,8.43
2018-11-23T22:37:56.470Z,8.25
2018-11-23T22:40:25.068Z,8.33
2018-11-23T22:42:54.344Z,8.08
2018-11-23T22:45:23.595Z,7.90
2018-11-23T22:47:53.570Z,8.00
2018-11-23T22:50:23.995Z,8.70
2018-11-23T22:52:54.087Z,7.95
2018-11-23T22:55:24.025Z,8.35
2018-11-23T22:57:54.010Z,8.83
2018-11-23T23:00:26.993Z,7.42
2018-11-23T23:02:56.736Z,7.72
2018-11-23T23:05:25.788Z,7.78
2018-11-23T23:07:54.403Z,7.90
2018-11-23T23:10:23.531Z,7.67
2018-11-23T23:12:52.364Z,8.10
2018-11-23T23:15:21.346Z,8.00
2018-11-23T23:17:49.933Z,7.30
2018-11-23T23:20:20.118Z,7.90
2018-11-23T23:22:48.914Z,7.25
2018-11-23T23:25:18.846Z,7.95
2018-11-23T23:27:47.462Z,7.90
2018-11-23T23:30:17.400Z,7.75
2018-11-23T23:32:46.189Z,8.30
2018-11-23T23:35:15.955Z,8.13
2018-11-23T23:37:44.645Z,7.67
2018-11-23T23:40:13.773Z,8.30
2018-11-23T23:42:42.327Z,7.83
2018-11-23T23:45:11.956Z,7.72
2018-11-23T23:47:40.705Z,7.55
2018-11-23T23:50:10.013Z,8.18
2018-11-23T23:52:40.399Z,7.67
2018-11-23T23:55:09.380Z,7.90
2018-11-23T23:57:37.977Z,7.35
